Time;durP1;ratioP1;P1;durP2;ratioP2;P2;SDS_P1;SDS_P2;PMS_P1;PMS_P2;Temp;Humidity;BMP_temperature;BMP_pressure;BME280_temperature;BME280_humidity;BME280_pressure;Samples;Min_cycle;Max_cycle;Signal;HPM_P1;HPM_P2
2023/07/01 00:01:42;;;;;;;;;7.00;6.60;;;;;17.27;57.67;99202.34;5099011;28;8826;-58
2023/07/01 00:04:10;;;;;;;;;8.25;8.00;;;;;17.29;57.99;99197.63;5099605;28;9591;-59
2023/07/01 00:06:41;;;;;;;;;7.00;6.50;;;;;17.29;58.24;99192.25;5098581;28;8836;-59
2023/07/01 00:09:10;;;;;;;;;9.20;9.20;;;;;17.32;57.38;99191.03;5099029;28;8845;-59
2023/07/01 00:11:38;;;;;;;;;6.80;6.60;;;;;17.33;57.56;99190.84;5099140;28;8818;-58
2023/07/01 00:14:05;;;;;;;;;4.40;4.40;;;;;17.35;58.04;99183.44;5098657;28;8834;-59
2023/07/01 00:16:33;;;;;;;;;7.00;7.00;;;;;17.37;57.73;99185.97;5098612;28;8866;-59
2023/07/01 00:19:01;;;;;;;;;8.20;8.20;;;;;17.38;57.65;99169.63;5098843;28;9004;-58
2023/07/01 00:30:52;;;;;;;;;4.00;4.00;;;;;17.48;57.76;99156.72;5098720;28;8786;-60
2023/07/01 00:33:20;;;;;;;;;6.80;6.80;;;;;17.50;57.10;99151.16;5098635;28;8833;-58
2023/07/01 00:35:48;;;;;;;;;6.20;6.00;;;;;17.54;57.45;99150.59;5098679;28;8818;-58
2023/07/01 00:38:16;;;;;;;;;4.40;4.40;;;;;17.57;57.53;99152.09;5098771;28;8914;-58
2023/07/01 00:40:43;;;;;;;;;7.40;7.40;;;;;17.60;57.09;99154.44;5098870;28;9539;-58
2023/07/01 00:43:11;;;;;;;;;6.60;6.40;;;;;17.63;57.51;99143.28;5099171;28;8862;-58
2023/07/01 00:45:39;;;;;;;;;6.80;6.00;;;;;17.65;57.18;99144.78;5098648;28;8838;-58
2023/07/01 00:48:07;;;;;;;;;6.00;6.00;;;;;17.71;57.33;99135.13;5098565;28;8985;-58
2023/07/01 00:50:35;;;;;;;;;6.00;6.00;;;;;17.73;56.71;99135.75;5098639;28;8826;-59
2023/07/01 00:53:03;;;;;;;;;1.40;1.00;;;;;17.75;56.87;99129.16;5098571;28;8830;-59
2023/07/01 00:55:31;;;;;;;;;6.60;6.00;;;;;17.78;57.05;99130.66;5098335;28;8842;-58
2023/07/01 00:57:59;;;;;;;;;7.00;6.60;;;;;17.81;56.66;99130.25;5098406;28;8832;-59
2023/07/01 01:00:27;;;;;;;;;7.00;6.80;;;;;17.82;56.59;99124.69;5097156;28;9459;-60
2023/07/01 01:02:55;;;;;;;;;6.60;6.60;;;;;17.85;56.44;99118.91;5097424;28;8814;-58
2023/07/01 01:05:23;;;;;;;;;7.00;7.00;;;;;17.88;56.67;99120.41;5109663;28;8814;-58
2023/07/01 01:07:51;;;;;;;;;9.00;9.00;;;;;17.89;56.66;99114.00;5098005;28;8836;-58
2023/07/01 01:10:19;;;;;;;;;6.40;4.80;;;;;17.92;56.71;99110.94;5098029;28;8804;-59
2023/07/01 01:12:47;;;;;;;;;5.60;5.60;;;;;17.94;56.33;99115.13;5098025;28;8842;-58
2023/07/01 01:15:15;;;;;;;;;6.00;6.00;;;;;17.96;56.09;99104.13;5098097;28;8824;-58
2023/07/01 01:17:42;;;;;;;;;7.00;6.00;;;;;17.97;56.13;99103.97;5098094;28;8868;-60
2023/07/01 01:20:12;;;;;;;;;6.00;6.00;;;;;17.97;56.24;99103.97;5098100;28;8819;-60
2023/07/01 01:22:40;;;;;;;;;6.60;6.00;;;;;17.98;56.22;99099.41;5097780;28;8814;-60
2023/07/01 01:25:24;;;;;;;;;6.00;4.80;;;;;17.98;56.35;99092.16;5097705;28;8834;-60
2023/07/01 01:27:52;;;;;;;;;6.60;6.00;;;;;17.99;56.05;99093.81;5097705;28;8822;-60
2023/07/01 01:30:20;;;;;;;;;6.80;6.80;;;;;18.00;56.46;99086.56;5097529;28;8855;-60
2023/07/01 01:32:48;;;;;;;;;7.40;7.40;;;;;17.99;56.38;99083.03;5097629;28;8818;-61
2023/07/01 01:35:16;;;;;;;;;6.40;6.00;;;;;18.00;56.69;99084.69;5097598;28;8868;-59
2023/07/01 01:37:44;;;;;;;;;5.60;4.40;;;;;18.01;56.65;99081.00;5098025;28;9491;-59
2023/07/01 01:40:11;;;;;;;;;6.80;6.60;;;;;18.00;56.30;99071.22;5097706;28;8837;-60
2023/07/01 01:42:39;;;;;;;;;4.00;4.00;;;;;18.01;56.33;99066.69;5097730;28;9531;-60
2023/07/01 01:45:07;;;;;;;;;6.80;6.80;;;;;18.01;56.79;99062.16;5098043;28;8820;-59
2023/07/01 01:47:34;;;;;;;;;7.00;6.40;;;;;18.00;56.50;99059.63;5097717;28;8970;-60
2023/07/01 01:50:02;;;;;;;;;6.00;6.00;;;;;17.99;56.13;99064.19;5097166;28;8818;-60
2023/07/01 01:52:30;;;;;;;;;4.00;4.00;;;;;18.00;55.94;99049.69;5097322;28;9500;-59
2023/07/01 01:54:57;;;;;;;;;1.00;1.00;;;;;18.01;56.10;99051.38;5095876;28;8842;-58
2023/07/01 01:57:26;;;;;;;;;4.00;4.00;;;;;17.99;56.50;99041.81;5096156;28;8829;-60
2023/07/01 01:59:53;;;;;;;;;6.00;6.00;;;;;17.99;56.62;99039.94;5096481;28;9510;-60
2023/07/01 02:02:21;;;;;;;;;6.00;6.00;;;;;18.00;56.58;99038.91;5096182;28;8827;-60
2023/07/01 02:04:49;;;;;;;;;6.60;6.00;;;;;18.00;56.31;99033.50;5096423;28;8823;-60
2023/07/01 02:07:17;;;;;;;;;5.60;5.60;;;;;18.00;56.17;99030.81;5096693;28;8869;-58
2023/07/01 02:09:44;;;;;;;;;4.00;4.00;;;;;18.00;56.75;99028.13;5096872;28;8804;-61
2023/07/01 02:12:12;;;;;;;;;6.00;6.00;;;;;18.00;56.63;99027.31;5096264;28;8803;-58
2023/07/01 02:14:40;;;;;;;;;7.80;7.20;;;;;18.00;56.16;99025.44;5097008;28;8836;-60
2023/07/01 02:17:07;;;;;;;;;4.00;4.00;;;;;18.00;56.22;99019.22;5096854;28;8820;-58
2023/07/01 02:19:36;;;;;;;;;6.20;5.60;;;;;18.00;56.31;99017.34;5096824;28;8823;-59
2023/07/01 02:22:04;;;;;;;;;6.60;6.00;;;;;18.00;56.73;99011.13;5096957;28;8836;-60
2023/07/01 02:24:31;;;;;;;;;6.00;6.00;;;;;17.99;56.23;99007.59;5096651;28;8815;-60
2023/07/01 02:26:59;;;;;;;;;5.60;5.60;;;;;17.98;56.23;99000.53;5096914;28;8823;-59
2023/07/01 02:29:26;;;;;;;;;3.80;3.80;;;;;17.96;56.77;99002.59;5096887;28;8830;-58
2023/07/01 02:31:54;;;;;;;;;4.00;4.00;;;;;17.96;56.60;98988.28;5096599;28;8820;-60
2023/07/01 02:34:22;;;;;;;;;5.60;4.40;;;;;17.95;56.90;98992.00;5096432;28;8835;-61
2023/07/01 02:36:50;;;;;;;;;4.00;4.00;;;;;17.96;56.31;98997.22;5096773;28;8835;-59
2023/07/01 02:39:17;;;;;;;;;5.60;5.60;;;;;17.95;56.78;98990.16;5096838;28;8824;-58
2023/07/01 02:41:45;;;;;;;;;6.00;4.00;;;;;17.96;56.49;99005.28;5096007;28;8834;-59
2023/07/01 02:44:13;;;;;;;;;4.40;4.40;;;;;17.98;56.71;98999.72;5096658;28;8812;-60
2023/07/01 02:46:41;;;;;;;;;4.00;4.00;;;;;17.99;56.57;98999.50;5095547;28;8818;-58
2023/07/01 02:49:09;;;;;;;;;6.80;6.80;;;;;18.03;56.62;99000.81;5096023;28;8826;-60
2023/07/01 02:51:37;;;;;;;;;2.60;2.60;;;;;18.09;56.48;99000.03;5096399;28;8814;-59
2023/07/01 02:54:04;;;;;;;;;4.50;4.50;;;;;18.16;56.47;99005.50;5096054;28;8822;-59
2023/07/01 02:56:32;;;;;;;;;4.00;4.00;;;;;18.17;56.07;98997.22;5094667;28;9440;-59
2023/07/01 02:59:00;;;;;;;;;4.00;4.00;;;;;18.23;55.91;98987.53;5095990;28;8818;-59
2023/07/01 03:01:27;;;;;;;;;6.00;6.00;;;;;18.28;55.40;98998.56;5096053;28;8806;-61
2023/07/01 03:03:56;;;;;;;;;5.60;5.60;;;;;18.28;55.61;98991.28;5095858;28;8879;-59
2023/07/01 03:06:35;;;;;;;;;6.80;6.40;;;;;18.29;55.94;98990.25;5094995;28;8806;-59
2023/07/01 03:09:07;;;;;;;;;7.00;6.40;;;;;18.29;55.77;98987.56;5095392;28;8940;-59
2023/07/01 03:11:34;;;;;;;;;6.20;6.20;;;;;18.30;55.71;99001.94;5095390;28;8818;-60
2023/07/01 03:14:02;;;;;;;;;6.20;6.00;;;;;18.29;55.62;98995.66;5096036;28;8822;-60
2023/07/01 03:16:30;;;;;;;;;4.00;3.80;;;;;18.29;55.56;98992.16;5095311;28;8846;-61
2023/07/01 03:18:59;;;;;;;;;5.60;5.60;;;;;18.28;55.63;98977.00;5094625;28;8806;-61
2023/07/01 03:21:27;;;;;;;;;6.00;6.00;;;;;18.26;55.57;98982.56;5095602;28;8802;-59
2023/07/01 03:23:54;;;;;;;;;5.60;4.00;;;;;18.26;55.55;98974.50;5099836;28;8842;-59
2023/07/01 03:26:22;;;;;;;;;5.20;5.20;;;;;18.27;55.81;98978.84;5099907;28;8802;-59
2023/07/01 03:28:49;;;;;;;;;7.40;7.00;;;;;18.26;56.05;98965.56;5099774;28;9471;-58
2023/07/01 03:31:17;;;;;;;;;4.00;4.00;;;;;18.23;55.71;98966.78;5099754;28;8806;-59
2023/07/01 03:33:45;;;;;;;;;4.40;4.40;;;;;18.21;55.56;98960.75;5098541;28;8814;-60
2023/07/01 03:36:13;;;;;;;;;5.20;5.20;;;;;18.23;55.65;98963.25;5098961;28;8822;-59
2023/07/01 03:38:40;;;;;;;;;7.80;7.20;;;;;18.19;56.07;98960.13;5098514;28;8826;-61
2023/07/01 03:41:08;;;;;;;;;3.80;3.80;;;;;18.19;55.93;98961.97;5098786;28;8818;-60
2023/07/01 03:43:36;;;;;;;;;6.00;5.60;;;;;18.17;56.21;98954.09;5079740;28;8847;-59
2023/07/01 03:46:04;;;;;;;;;4.00;4.00;;;;;18.16;55.82;98947.03;5085356;28;8811;-60
2023/07/01 03:48:31;;;;;;;;;6.00;6.00;;;;;18.15;55.96;98950.75;5098632;28;8822;-57
2023/07/01 03:50:59;;;;;;;;;4.00;4.00;;;;;18.16;55.89;98949.75;5099679;28;9496;-61
2023/07/01 03:53:27;;;;;;;;;6.00;6.00;;;;;18.16;56.34;98946.19;5099475;28;8830;-59
2023/07/01 03:55:55;;;;;;;;;3.00;3.00;;;;;18.16;56.11;98948.91;5099189;28;8810;-59
2023/07/01 03:58:24;;;;;;;;;6.60;6.60;;;;;18.14;56.42;98951.78;5098843;28;8821;-59
2023/07/01 04:00:52;;;;;;;;;3.00;3.00;;;;;18.14;56.34;98943.69;5099495;28;9464;-60
2023/07/01 04:03:23;;;;;;;;;4.00;4.00;;;;;18.14;55.99;98946.38;5078633;28;8846;-58
2023/07/01 04:05:52;;;;;;;;;4.00;3.40;;;;;18.13;56.23;98942.03;5078791;28;8898;-59
2023/07/01 04:08:20;;;;;;;;;3.00;1.40;;;;;18.15;56.24;98949.94;5097471;28;8952;-61
2023/07/01 04:10:48;;;;;;;;;6.00;6.00;;;;;18.15;55.90;98933.75;5098409;28;8812;-60
2023/07/01 04:13:16;;;;;;;;;8.20;7.80;;;;;18.17;56.37;98935.22;5097887;28;8818;-61
2023/07/01 04:15:44;;;;;;;;;4.40;4.40;;;;;18.19;56.40;98932.31;5097658;28;8814;-61
2023/07/01 04:18:11;;;;;;;;;0.00;0.00;;;;;18.19;55.98;98925.09;5098022;28;8830;-61
2023/07/01 04:20:40;;;;;;;;;1.80;1.80;;;;;18.19;55.74;98922.38;5097614;28;8830;-61
2023/07/01 04:23:07;;;;;;;;;4.00;4.00;;;;;18.19;55.95;98919.69;5097594;28;8837;-61
2023/07/01 04:25:35;;;;;;;;;5.20;4.40;;;;;18.19;56.17;98913.44;5098519;28;8864;-61
2023/07/01 04:28:04;;;;;;;;;4.00;4.00;;;;;18.20;56.27;98923.19;5098481;28;9704;-59
2023/07/01 04:30:31;;;;;;;;;6.20;6.20;;;;;18.20;55.90;98918.66;5098401;28;8842;-58
2023/07/01 04:32:59;;;;;;;;;3.00;3.00;;;;;18.22;55.97;98921.97;5097832;28;8835;-61
2023/07/01 04:35:28;;;;;;;;;4.80;4.80;;;;;18.25;56.65;98921.59;5097120;28;9757;-60
2023/07/01 04:37:55;;;;;;;;;3.40;3.00;;;;;18.30;55.90;98926.44;5097157;28;8851;-60
2023/07/01 04:40:23;;;;;;;;;6.20;6.20;;;;;18.35;56.14;98914.03;5098419;28;8841;-61
2023/07/01 04:42:50;;;;;;;;;4.40;4.00;;;;;18.39;55.60;98915.31;5098563;28;8820;-61
2023/07/01 04:45:19;;;;;;;;;1.80;0.80;;;;;18.42;56.00;98906.84;5097585;28;8827;-59
2023/07/01 04:47:47;;;;;;;;;4.40;4.00;;;;;18.47;55.99;98901.69;5098021;28;9759;-59
2023/07/01 04:50:15;;;;;;;;;3.00;3.00;;;;;18.50;55.43;98901.28;5097483;28;8830;-59
2023/07/01 04:52:43;;;;;;;;;4.40;4.40;;;;;18.55;55.93;98893.44;5097199;28;8829;-59
2023/07/01 04:55:10;;;;;;;;;2.20;1.00;;;;;18.59;55.32;98892.00;5098205;28;8799;-61
2023/07/01 04:57:38;;;;;;;;;3.60;3.60;;;;;18.62;55.20;98899.72;5098070;28;8968;-61
2023/07/01 05:00:09;;;;;;;;;5.60;4.00;;;;;18.66;55.40;98898.28;5096522;28;8818;-60
2023/07/01 05:02:37;;;;;;;;;4.00;3.80;;;;;18.69;55.48;98889.81;5097392;28;8948;-61
2023/07/01 05:05:04;;;;;;;;;5.80;5.60;;;;;18.71;55.52;98885.03;5096658;28;8856;-60
2023/07/01 05:07:33;;;;;;;;;6.00;4.00;;;;;18.76;55.68;98885.25;5097113;28;8813;-60
2023/07/01 05:10:00;;;;;;;;;6.00;6.00;;;;;18.78;55.48;98887.75;5097318;28;8948;-59
2023/07/01 05:12:30;;;;;;;;;3.60;3.60;;;;;18.78;55.32;98880.50;5097806;28;8803;-58
2023/07/01 05:14:57;;;;;;;;;5.60;5.60;;;;;18.81;55.27;98885.50;5097675;28;8810;-61
2023/07/01 05:17:25;;;;;;;;;4.00;4.00;;;;;18.83;55.41;98880.72;5097618;28;8842;-62
2023/07/01 05:19:53;;;;;;;;;3.60;3.60;;;;;18.85;55.57;98873.28;5096948;28;8821;-60
2023/07/01 05:22:20;;;;;;;;;4.00;3.20;;;;;18.87;55.73;98887.41;5096827;28;8828;-61
2023/07/01 05:24:48;;;;;;;;;5.60;4.00;;;;;18.88;55.67;98878.25;5097161;28;8818;-62
2023/07/01 05:27:16;;;;;;;;;4.00;4.00;;;;;18.90;55.38;98881.59;5096636;28;8829;-60
2023/07/01 05:29:43;;;;;;;;;5.40;5.20;;;;;18.91;55.48;98866.25;5096377;28;8836;-61
2023/07/01 05:32:11;;;;;;;;;3.00;3.00;;;;;18.93;55.26;98869.56;5096733;28;8826;-61
2023/07/01 05:34:39;;;;;;;;;4.00;3.60;;;;;18.95;55.08;98868.34;5096012;28;8822;-60
2023/07/01 05:37:07;;;;;;;;;4.40;4.40;;;;;18.96;55.09;98858.38;5096336;28;8926;-61
2023/07/01 05:39:35;;;;;;;;;3.20;3.00;;;;;18.99;55.33;98848.03;5096911;28;8847;-60
2023/07/01 05:42:03;;;;;;;;;4.80;4.80;;;;;19.03;55.58;98845.75;5097149;28;8845;-60
2023/07/01 05:44:30;;;;;;;;;3.60;3.60;;;;;19.07;55.56;98847.00;5097267;28;8820;-60
2023/07/01 05:46:58;;;;;;;;;3.00;1.80;;;;;19.11;54.79;98850.97;5096065;28;8850;-60
2023/07/01 05:49:26;;;;;;;;;6.00;6.00;;;;;19.15;55.31;98841.41;5096991;28;8825;-61
2023/07/01 05:51:54;;;;;;;;;6.00;6.00;;;;;19.17;55.15;98845.59;5096482;28;8810;-61
2023/07/01 05:54:21;;;;;;;;;6.20;5.80;;;;;19.20;55.29;98833.59;5096808;28;8856;-61
2023/07/01 05:56:50;;;;;;;;;6.00;4.00;;;;;19.22;55.50;98840.44;5096524;28;8852;-61
2023/07/01 05:59:17;;;;;;;;;6.00;5.60;;;;;19.25;55.06;98836.47;5096169;28;8844;-61
2023/07/01 06:01:45;;;;;;;;;6.20;5.20;;;;;19.29;55.32;98837.75;5096502;28;8830;-58
2023/07/01 06:04:13;;;;;;;;;7.00;6.20;;;;;19.32;55.50;98838.19;5096037;28;8814;-61
2023/07/01 06:06:41;;;;;;;;;1.00;1.00;;;;;19.37;55.41;98834.88;5096220;28;8923;-61
2023/07/01 06:09:10;;;;;;;;;4.00;4.00;;;;;19.41;55.47;98842.34;5094926;28;8814;-61
2023/07/01 06:11:37;;;;;;;;;4.40;4.40;;;;;19.46;55.20;98828.22;5095539;28;8956;-61
2023/07/01 06:14:05;;;;;;;;;6.00;5.20;;;;;19.51;55.25;98823.88;5095652;28;8818;-61
2023/07/01 06:16:33;;;;;;;;;3.00;3.00;;;;;19.56;54.79;98821.38;5095660;28;8850;-61
2023/07/01 06:19:01;;;;;;;;;4.00;4.00;;;;;19.64;54.94;98825.78;5096023;28;8902;-60
2023/07/01 06:21:28;;;;;;;;;4.00;4.00;;;;;19.70;54.72;98819.53;5094469;28;8829;-59
2023/07/01 06:23:56;;;;;;;;;4.00;4.00;;;;;19.74;54.76;98821.63;5095821;28;8818;-61
2023/07/01 06:26:24;;;;;;;;;10.00;10.00;;;;;19.80;54.66;98819.97;5095568;28;8888;-61
2023/07/01 06:28:52;;;;;;;;;7.20;7.20;;;;;19.81;54.37;98817.03;5095725;28;8826;-61
2023/07/01 06:31:20;;;;;;;;;7.00;5.20;;;;;19.83;54.57;98820.38;5095813;28;8992;-60
2023/07/01 06:33:48;;;;;;;;;5.00;5.00;;;;;19.79;54.60;98807.50;5095799;28;8972;-60
2023/07/01 06:36:17;;;;;;;;;4.00;4.00;;;;;19.75;54.92;98811.63;5095361;28;8850;-58
2023/07/01 06:38:46;;;;;;;;;4.80;3.60;;;;;19.72;55.11;98812.88;5095798;28;8855;-61
2023/07/01 06:41:14;;;;;;;;;1.00;1.00;;;;;19.73;55.09;98813.72;5095170;28;8899;-61
2023/07/01 06:43:42;;;;;;;;;4.00;4.00;;;;;19.72;54.69;98818.28;5095681;28;8806;-60
2023/07/01 06:46:10;;;;;;;;;4.00;3.80;;;;;19.71;55.01;98802.31;5095730;28;8852;-61
2023/07/01 06:48:38;;;;;;;;;6.20;5.80;;;;;19.70;54.78;98806.00;5095899;28;8834;-60
2023/07/01 06:51:07;;;;;;;;;1.40;1.00;;;;;19.68;55.39;98810.78;5095432;28;8857;-61
2023/07/01 06:53:34;;;;;;;;;5.80;4.60;;;;;19.66;55.39;98811.00;5095451;28;8826;-61
2023/07/01 06:56:02;;;;;;;;;4.40;4.40;;;;;19.64;55.18;98796.88;5075796;28;8836;-60
2023/07/01 06:58:30;;;;;;;;;4.80;4.20;;;;;19.64;55.05;98798.75;5092056;28;8822;-60
2023/07/01 07:00:57;;;;;;;;;4.80;4.80;;;;;19.64;55.15;98804.97;5094660;28;8834;-60
2023/07/01 07:03:27;;;;;;;;;4.80;4.00;;;;;19.63;55.33;98811.41;5095373;28;8914;-59
2023/07/01 07:05:55;;;;;;;;;5.40;4.00;;;;;19.63;54.98;98810.56;5094714;28;8842;-58
2023/07/01 07:08:24;;;;;;;;;5.00;4.20;;;;;19.60;54.95;98814.56;5095168;28;8818;-59
2023/07/01 07:10:52;;;;;;;;;4.00;4.00;;;;;19.49;55.10;98809.75;5094900;28;8822;-61
2023/07/01 07:13:20;;;;;;;;;4.80;4.80;;;;;19.20;55.54;98823.59;5094872;28;8834;-59
2023/07/01 07:15:48;;;;;;;;;5.00;3.40;;;;;18.95;56.51;98824.31;5095760;28;8834;-60
2023/07/01 07:18:16;;;;;;;;;5.20;4.00;;;;;18.67;57.22;98827.09;5094750;28;8834;-59
2023/07/01 07:20:44;;;;;;;;;3.40;3.00;;;;;18.43;57.90;98830.31;5095363;28;8889;-59
2023/07/01 07:23:12;;;;;;;;;4.00;4.00;;;;;18.27;58.30;98825.19;5095794;28;9610;-59
2023/07/01 07:25:40;;;;;;;;;4.00;4.00;;;;;18.14;58.46;98832.38;5094826;28;8857;-59
2023/07/01 07:28:08;;;;;;;;;3.60;3.20;;;;;18.02;59.01;98831.25;5094988;28;8960;-59
2023/07/01 07:30:37;;;;;;;;;4.40;4.00;;;;;17.77;59.65;98828.13;5094888;28;8964;-59
2023/07/01 07:33:04;;;;;;;;;4.00;3.20;;;;;17.55;60.06;98829.19;5094897;28;8810;-59
2023/07/01 07:35:32;;;;;;;;;4.00;4.00;;;;;17.33;60.71;98835.56;5094438;28;8834;-59
2023/07/01 07:38:00;;;;;;;;;3.80;3.00;;;;;17.18;61.13;98832.13;5094594;28;8823;-59
2023/07/01 07:40:28;;;;;;;;;4.00;4.00;;;;;17.03;61.69;98842.09;5094862;28;9563;-60
2023/07/01 07:42:56;;;;;;;;;4.40;4.40;;;;;16.91;62.98;98832.84;5094877;28;8808;-61
2023/07/01 07:45:23;;;;;;;;;3.80;3.80;;;;;16.82;62.79;98841.19;5094836;28;8823;-60
2023/07/01 07:47:51;;;;;;;;;5.20;4.00;;;;;16.79;63.05;98837.00;5094423;28;8836;-60
2023/07/01 07:50:21;;;;;;;;;4.00;4.00;;;;;16.78;63.10;98838.03;5094230;28;8846;-60
2023/07/01 07:52:50;;;;;;;;;6.40;6.20;;;;;16.81;63.11;98829.63;5093294;28;8815;-62
2023/07/01 07:55:18;;;;;;;;;4.80;4.80;;;;;16.93;63.11;98828.09;5094495;28;8843;-61
2023/07/01 07:57:45;;;;;;;;;4.00;4.00;;;;;17.14;62.51;98828.13;5094295;28;8826;-60
2023/07/01 08:00:13;;;;;;;;;3.20;3.00;;;;;17.35;62.20;98830.84;5094048;28;8806;-61
2023/07/01 08:02:44;;;;;;;;;3.40;3.00;;;;;17.56;61.06;98820.09;5094888;28;8826;-59
2023/07/01 08:05:12;;;;;;;;;4.80;4.80;;;;;17.76;60.85;98820.28;5094341;28;8844;-61
2023/07/01 08:07:40;;;;;;;;;4.00;4.00;;;;;17.92;60.70;98818.09;5094222;28;8806;-60
2023/07/01 08:10:09;;;;;;;;;4.00;4.00;;;;;18.08;60.81;98819.69;5096584;28;8948;-60
2023/07/01 08:12:36;;;;;;;;;6.20;6.20;;;;;18.23;60.44;98812.31;5097423;28;8814;-61
2023/07/01 08:15:04;;;;;;;;;6.00;6.00;;;;;18.39;60.20;98812.03;5097223;28;8841;-59
2023/07/01 08:17:36;;;;;;;;;6.60;6.00;;;;;18.53;60.20;98816.47;5097910;28;8838;-60
2023/07/01 08:20:04;;;;;;;;;3.00;1.00;;;;;18.62;59.63;98824.19;5097725;28;8821;-61
2023/07/01 08:22:32;;;;;;;;;6.00;5.20;;;;;18.66;59.26;98820.06;5097809;28;8856;-61
2023/07/01 08:25:00;;;;;;;;;4.00;4.00;;;;;18.71;59.17;98812.19;5097723;28;8849;-60
2023/07/01 08:27:27;;;;;;;;;4.40;3.00;;;;;18.70;59.86;98826.72;5097430;28;8806;-61
2023/07/01 08:29:56;;;;;;;;;6.40;6.00;;;;;18.69;59.62;98822.38;5097943;28;8933;-61
2023/07/01 08:32:24;;;;;;;;;5.40;4.40;;;;;18.68;60.10;98817.97;5097975;28;8822;-62
2023/07/01 08:34:52;;;;;;;;;6.00;4.00;;;;;18.72;59.75;98819.25;5097870;28;8834;-60
2023/07/01 08:37:20;;;;;;;;;4.00;4.00;;;;;18.75;60.03;98816.16;5097776;28;8826;-59
2023/07/01 08:39:48;;;;;;;;;2.20;1.40;;;;;18.80;60.05;98815.53;5097309;28;8810;-61
2023/07/01 08:42:16;;;;;;;;;4.00;4.00;;;;;18.81;60.13;98812.66;5097853;28;8842;-60
2023/07/01 08:44:45;;;;;;;;;2.60;1.40;;;;;18.86;60.72;98817.44;5097536;28;8818;-59
2023/07/01 08:47:15;;;;;;;;;4.00;4.00;;;;;18.87;60.15;98813.69;5096887;28;8850;-60
2023/07/01 08:49:43;;;;;;;;;4.80;4.80;;;;;18.94;60.16;98814.56;5096514;28;8832;-61
2023/07/01 08:52:11;;;;;;;;;4.00;3.80;;;;;19.05;60.45;98809.41;5097156;28;8814;-60
2023/07/01 08:54:40;;;;;;;;;5.60;4.00;;;;;19.15;59.59;98801.78;5096269;28;8830;-59
2023/07/01 08:57:08;;;;;;;;;3.40;3.40;;;;;19.26;60.21;98808.47;5096456;28;8830;-60
2023/07/01 08:59:36;;;;;;;;;4.40;3.20;;;;;19.32;59.75;98810.34;5096831;28;8822;-60
2023/07/01 09:02:04;;;;;;;;;7.00;6.00;;;;;19.32;60.12;98802.22;5096009;28;8810;-61
2023/07/01 09:04:32;;;;;;;;;4.00;4.00;;;;;19.34;60.42;98802.88;5096288;28;8854;-58
2023/07/01 09:07:00;;;;;;;;;3.00;3.00;;;;;19.37;59.95;98808.72;5096361;28;8826;-59
2023/07/01 09:09:28;;;;;;;;;4.00;4.00;;;;;19.34;60.73;98800.19;5096865;28;8799;-59
2023/07/01 09:11:56;;;;;;;;;3.00;3.00;;;;;19.34;60.84;98798.28;5096859;28;8822;-59
2023/07/01 09:14:24;;;;;;;;;6.00;4.00;;;;;19.32;60.99;98800.38;5096944;28;8822;-59
2023/07/01 09:16:51;;;;;;;;;4.00;4.00;;;;;19.35;61.08;98799.16;5097031;28;8834;-60
2023/07/01 09:19:22;;;;;;;;;3.00;3.00;;;;;19.39;61.15;98801.22;5095961;28;8829;-60
2023/07/01 09:21:50;;;;;;;;;6.00;6.00;;;;;19.54;60.92;98801.03;5095970;28;8842;-60
2023/07/01 09:24:18;;;;;;;;;5.20;5.20;;;;;19.58;60.83;98803.09;5096482;28;8807;-61
2023/07/01 09:26:46;;;;;;;;;4.80;4.00;;;;;19.58;61.55;98789.59;5095952;28;8835;-61
2023/07/01 09:29:15;;;;;;;;;4.80;3.60;;;;;19.58;61.25;98784.19;5095359;28;9719;-61
2023/07/01 09:31:44;;;;;;;;;3.20;3.20;;;;;19.58;61.57;98797.69;5094821;28;8823;-61
2023/07/01 09:34:12;;;;;;;;;6.00;6.00;;;;;19.59;61.30;98803.94;5095742;28;8824;-60
2023/07/01 09:36:40;;;;;;;;;1.00;1.00;;;;;19.57;61.54;98797.91;5095889;28;8822;-61
2023/07/01 09:39:08;;;;;;;;;6.00;6.00;;;;;19.56;62.08;98798.97;5094453;28;8856;-61
2023/07/01 09:41:35;;;;;;;;;1.00;1.00;;;;;19.57;61.69;98797.91;5094285;28;8914;-61
2023/07/01 09:44:04;;;;;;;;;3.00;3.00;;;;;19.59;62.10;98795.84;5094242;28;8842;-60
2023/07/01 09:46:31;;;;;;;;;3.00;3.00;;;;;19.64;61.72;98796.88;5094731;28;8857;-61
2023/07/01 09:49:00;;;;;;;;;3.00;3.00;;;;;19.67;61.67;98785.66;5094618;28;8865;-60
2023/07/01 09:51:27;;;;;;;;;4.60;4.60;;;;;19.61;62.06;98786.50;5094932;28;8896;-60
2023/07/01 09:53:55;;;;;;;;;3.60;3.40;;;;;19.59;62.56;98788.59;5094174;28;8855;-61
2023/07/01 09:56:24;;;;;;;;;4.60;4.00;;;;;19.72;61.98;98785.84;5094230;28;8810;-59
2023/07/01 09:58:52;;;;;;;;;3.60;3.60;;;;;19.97;61.96;98778.78;5094657;28;8818;-61
2023/07/01 10:01:20;;;;;;;;;3.40;3.40;;;;;20.31;61.39;98773.13;5093214;28;9516;-59
2023/07/01 10:03:48;;;;;;;;;2.20;2.20;;;;;20.53;60.92;98769.09;5094513;28;8988;-61
2023/07/01 10:06:16;;;;;;;;;4.00;4.00;;;;;20.60;60.69;98772.63;5094684;28;8818;-59
2023/07/01 10:08:44;;;;;;;;;4.60;4.00;;;;;20.71;60.62;98766.53;5096124;28;8826;-61
2023/07/01 10:11:12;;;;;;;;;4.00;4.00;;;;;20.80;61.04;98759.84;5095681;28;8826;-60
2023/07/01 10:13:40;;;;;;;;;4.60;4.00;;;;;21.01;60.57;98757.66;5095653;28;9500;-59
2023/07/01 10:16:08;;;;;;;;;1.80;1.80;;;;;21.16;60.38;98762.78;5095702;28;8835;-59
2023/07/01 10:18:36;;;;;;;;;4.00;4.00;;;;;21.21;60.04;98754.84;5096051;28;9569;-60
2023/07/01 10:21:06;;;;;;;;;4.20;2.00;;;;;21.14;60.33;98762.16;5095492;28;8842;-60
2023/07/01 10:23:34;;;;;;;;;2.00;2.00;;;;;21.03;60.39;98755.56;5095245;28;8851;-59
2023/07/01 10:26:02;;;;;;;;;4.00;4.00;;;;;20.98;61.23;98751.84;5094910;28;8826;-59
2023/07/01 10:28:34;;;;;;;;;2.00;2.00;;;;;21.03;60.94;98760.16;5093912;28;8834;-59
2023/07/01 10:31:02;;;;;;;;;4.40;4.40;;;;;21.11;60.91;98752.59;5094306;28;8825;-60
2023/07/01 10:33:33;;;;;;;;;4.00;4.00;;;;;21.16;60.88;98752.78;5094256;28;8823;-59
2023/07/01 10:36:01;;;;;;;;;4.00;4.00;;;;;21.17;60.79;98748.19;5094333;28;8844;-60
2023/07/01 10:38:30;;;;;;;;;4.00;3.60;;;;;21.17;61.40;98756.31;5094863;28;8838;-60
2023/07/01 10:40:59;;;;;;;;;4.00;4.00;;;;;21.07;61.58;98745.97;5094331;28;8844;-62
2023/07/01 10:43:27;;;;;;;;;5.00;5.00;;;;;21.00;61.14;98755.16;5094993;28;8972;-59
2023/07/01 10:45:55;;;;;;;;;4.80;4.80;;;;;20.98;61.35;98750.00;5093986;28;8830;-58
2023/07/01 10:48:23;;;;;;;;;4.80;4.80;;;;;20.98;62.08;98758.13;5094136;28;8853;-58
2023/07/01 10:50:51;;;;;;;;;4.00;4.00;;;;;20.96;61.82;98754.78;5094394;28;8883;-58
2023/07/01 10:53:19;;;;;;;;;5.00;5.00;;;;;20.92;62.27;98747.31;5094392;28;8830;-60
2023/07/01 10:55:47;;;;;;;;;4.00;4.00;;;;;20.97;62.36;98750.19;5094494;28;8834;-59
2023/07/01 10:58:16;;;;;;;;;4.60;4.60;;;;;21.01;62.27;98737.88;5095040;28;8822;-59
2023/07/01 11:00:44;;;;;;;;;5.00;4.80;;;;;21.08;61.68;98747.63;5094480;28;8972;-61
2023/07/01 11:03:12;;;;;;;;;6.20;5.00;;;;;21.06;62.35;98738.06;5094385;28;8952;-60
2023/07/01 11:05:40;;;;;;;;;5.40;5.00;;;;;21.00;61.95;98734.34;5094317;28;8838;-59
2023/07/01 11:08:08;;;;;;;;;7.60;6.60;;;;;20.94;62.51;98745.19;5094401;28;8822;-60
2023/07/01 11:10:37;;;;;;;;;5.00;5.00;;;;;20.81;62.63;98748.78;5094046;28;8830;-60
2023/07/01 11:13:05;;;;;;;;;4.00;4.00;;;;;20.68;62.83;98745.31;5094324;28;8837;-59
2023/07/01 11:15:33;;;;;;;;;5.00;5.00;;;;;20.58;63.49;98744.13;5094151;28;8825;-61
2023/07/01 11:18:01;;;;;;;;;6.60;6.60;;;;;20.52;63.86;98740.41;5093958;28;9491;-60
2023/07/01 11:20:29;;;;;;;;;5.40;5.00;;;;;20.46;63.73;98741.25;5094051;28;8924;-60
2023/07/01 11:22:58;;;;;;;;;5.40;5.40;;;;;20.36;63.86;98738.16;5093051;28;8820;-58
2023/07/01 11:25:26;;;;;;;;;5.40;5.00;;;;;20.32;64.49;98730.69;5093430;28;8843;-59
2023/07/01 11:27:54;;;;;;;;;4.60;4.60;;;;;20.36;63.95;98738.16;5093390;28;8835;-59
2023/07/01 11:30:22;;;;;;;;;4.40;3.80;;;;;20.44;64.05;98737.09;5093144;28;8823;-61
2023/07/01 11:32:50;;;;;;;;;7.00;7.00;;;;;20.52;64.02;98732.28;5094305;28;8823;-59
2023/07/01 11:35:19;;;;;;;;;2.80;2.80;;;;;20.63;63.91;98734.31;5093977;28;8861;-60
2023/07/01 11:37:47;;;;;;;;;5.00;5.00;;;;;20.77;63.73;98735.09;5093308;28;8834;-60
2023/07/01 11:40:15;;;;;;;;;5.40;5.00;;;;;21.12;63.13;98729.06;5094188;28;8830;-59
2023/07/01 11:42:43;;;;;;;;;7.60;6.20;;;;;21.59;62.46;98728.50;5094870;28;8830;-61
2023/07/01 11:45:11;;;;;;;;;5.40;5.00;;;;;21.92;61.53;98734.47;5098815;28;8845;-60
2023/07/01 11:47:38;;;;;;;;;6.60;5.00;;;;;22.07;61.55;98730.38;5098395;28;9532;-59
2023/07/01 11:50:07;;;;;;;;;5.80;4.60;;;;;21.98;61.19;98728.16;5098957;28;9500;-60
2023/07/01 11:52:34;;;;;;;;;5.00;5.00;;;;;21.75;62.33;98741.53;5098097;28;8854;-60
2023/07/01 11:55:02;;;;;;;;;4.00;4.00;;;;;21.62;62.26;98737.00;5098713;28;8842;-59